createdAt,value
2019-04-26T00:04:18.667Z,99.90
2019-04-26T00:09:26.760Z,99.90
2019-04-26T00:14:49.483Z,99.90
2019-04-26T00:19:54.064Z,99.90
2019-04-26T00:24:58.977Z,99.90
2019-04-26T00:30:03.646Z,99.90
2019-04-26T00:35:08.359Z,99.90
2019-04-26T00:40:14.339Z,99.90
2019-04-26T00:45:20.880Z,99.90
2019-04-26T00:50:27.064Z,99.90
2019-04-26T00:55:34.254Z,99.90
2019-04-26T01:00:39.233Z,99.90
2019-04-26T01:05:44.078Z,99.90
2019-04-26T01:10:48.765Z,99.90
2019-04-26T01:15:53.358Z,99.90
2019-04-26T01:21:00.826Z,99.90
2019-04-26T01:26:19.261Z,99.90
2019-04-26T01:31:26.291Z,99.90
2019-04-26T01:36:32.023Z,99.90
2019-04-26T01:41:43.713Z,99.90
2019-04-26T01:46:48.867Z,99.90
2019-04-26T01:52:02.763Z,99.90
2019-04-26T01:57:07.493Z,99.90
2019-04-26T02:02:21.273Z,99.90
2019-04-26T02:07:40.306Z,99.90
2019-04-26T02:12:47.487Z,99.90
2019-04-26T02:17:54.419Z,99.90
2019-04-26T02:23:08.364Z,99.90
2019-04-26T02:28:12.981Z,99.90
2019-04-26T02:33:17.646Z,99.90
2019-04-26T02:38:22.240Z,99.90
2019-04-26T02:43:30.217Z,99.90
2019-04-26T02:48:57.434Z,99.90
2019-04-26T02:54:13.863Z,99.90
2019-04-26T02:59:41.150Z,99.90
2019-04-26T03:04:49.021Z,99.90
2019-04-26T03:09:55.715Z,99.90
2019-04-26T03:15:13.982Z,99.90
2019-04-26T03:20:20.894Z,99.90
2019-04-26T03:25:50.611Z,99.90
2019-04-26T03:31:06.498Z,99.90
2019-04-26T03:36:44.248Z,99.90
2019-04-26T03:42:21.844Z,99.90
2019-04-26T03:47:30.069Z,99.90
2019-04-26T03:53:19.458Z,99.90
2019-04-26T03:58:32.791Z,99.90
2019-04-26T04:03:55.975Z,99.90
2019-04-26T04:09:07.397Z,99.90
2019-04-26T04:14:19.494Z,99.90
2019-04-26T04:20:04.939Z,99.90
2019-04-26T04:25:13.433Z,99.90
2019-04-26T04:30:45.892Z,99.90
2019-04-26T04:35:55.554Z,99.90
2019-04-26T04:41:16.435Z,99.90
2019-04-26T04:46:56.085Z,99.90
2019-04-26T04:52:28.099Z,99.90
2019-04-26T04:57:41.975Z,99.90
2019-04-26T05:03:01.983Z,99.90
2019-04-26T05:08:23.505Z,99.90
2019-04-26T05:13:35.330Z,99.90
2019-04-26T05:19:30.578Z,99.90
2019-04-26T05:25:03.699Z,99.90
2019-04-26T05:31:15.351Z,99.90
2019-04-26T05:36:35.394Z,99.90
2019-04-26T05:42:43.496Z,99.90
2019-04-26T05:48:08.239Z,99.90
2019-04-26T05:53:50.132Z,99.90
2019-04-26T05:59:31.696Z,99.90
2019-04-26T06:05:12.622Z,99.90
2019-04-26T06:10:34.263Z,99.90
2019-04-26T06:15:54.389Z,99.90
2019-04-26T06:21:05.193Z,99.90
2019-04-26T06:26:49.460Z,99.90
2019-04-26T06:32:04.690Z,99.90
2019-04-26T06:37:26.553Z,99.90
2019-04-26T06:43:00.789Z,99.90
2019-04-26T06:48:17.734Z,99.90
2019-04-26T06:53:43.389Z,99.90
2019-04-26T06:59:03.430Z,99.90
2019-04-26T07:04:31.382Z,99.90
2019-04-26T07:09:50.254Z,99.90
2019-04-26T07:15:34.341Z,99.90
2019-04-26T07:21:00.590Z,99.90
2019-04-26T07:26:27.597Z,99.90
2019-04-26T07:31:47.440Z,99.90
2019-04-26T07:37:19.398Z,99.90
2019-04-26T07:42:47.932Z,99.90
2019-04-26T07:48:34.110Z,99.90
2019-04-26T07:53:50.077Z,99.90
2019-04-26T07:59:23.210Z,99.90
2019-04-26T08:04:35.611Z,99.90
2019-04-26T08:09:46.253Z,99.90
2019-04-26T08:15:32.136Z,99.90
2019-04-26T08:21:02.455Z,99.90
2019-04-26T08:26:13.413Z,99.90
2019-04-26T08:31:24.287Z,99.90
2019-04-26T08:36:33.009Z,99.90
2019-04-26T08:41:40.222Z,99.90
2019-04-26T08:47:01.184Z,99.90
2019-04-26T08:52:14.403Z,99.90
2019-04-26T08:57:17.034Z,99.90
2019-04-26T09:02:53.821Z,99.90
2019-04-26T09:08:00.641Z,99.90
2019-04-26T09:13:08.438Z,99.90
2019-04-26T09:18:13.137Z,99.90
2019-04-26T09:23:40.384Z,99.90
2019-04-26T09:29:12.501Z,99.90
2019-04-26T09:34:18.171Z,99.90
2019-04-26T09:39:23.488Z,99.90
2019-04-26T09:44:41.158Z,99.90
2019-04-26T09:49:51.497Z,99.90
2019-04-26T09:54:57.056Z,99.90
2019-04-26T10:00:02.909Z,99.90
2019-04-26T10:05:11.965Z,99.90
2019-04-26T10:10:22.967Z,99.90
2019-04-26T10:15:29.290Z,99.90
2019-04-26T10:20:33.930Z,99.90
2019-04-26T10:25:38.607Z,99.90
2019-04-26T10:30:43.968Z,99.90
2019-04-26T10:35:52.496Z,99.90
2019-04-26T10:40:55.321Z,99.90
2019-04-26T10:45:59.881Z,99.90
2019-04-26T10:51:07.395Z,99.90
2019-04-26T10:56:35.224Z,99.90
2019-04-26T11:01:40.033Z,99.90
2019-04-26T11:06:44.874Z,99.90
2019-04-26T11:11:49.519Z,99.90
2019-04-26T11:16:54.563Z,99.90
2019-04-26T11:21:59.161Z,99.90
2019-04-26T11:27:05.283Z,99.90
2019-04-26T11:32:10.346Z,99.90
2019-04-26T11:37:17.798Z,99.90
2019-04-26T11:42:21.204Z,99.90
2019-04-26T11:47:25.808Z,99.90
2019-04-26T11:52:32.235Z,99.90
2019-04-26T11:57:39.903Z,99.90
2019-04-26T12:02:46.414Z,99.90
2019-04-26T12:07:53.853Z,99.90
2019-04-26T12:13:05.639Z,99.90
2019-04-26T12:18:05.491Z,99.90
2019-04-26T12:23:13.737Z,99.90
2019-04-26T12:28:17.421Z,99.90
2019-04-26T12:33:22.021Z,99.90
2019-04-26T12:38:28.524Z,99.90
2019-04-26T12:43:32.930Z,99.90
2019-04-26T12:48:37.511Z,99.90
2019-04-26T12:53:42.079Z,99.90
2019-04-26T12:58:49.982Z,99.90
2019-04-26T13:04:10.916Z,99.90
2019-04-26T13:09:22.005Z,99.90
2019-04-26T13:14:52.562Z,99.90
2019-04-26T13:19:57.141Z,99.90
2019-04-26T13:25:01.976Z,99.90
2019-04-26T13:30:10.777Z,99.90
2019-04-26T13:35:14.249Z,99.90
2019-04-26T13:40:18.894Z,99.90
2019-04-26T13:45:41.433Z,99.90
2019-04-26T13:50:57.347Z,99.90
2019-04-26T13:56:01.937Z,99.90
2019-04-26T14:01:07.447Z,99.90
2019-04-26T14:06:12.097Z,99.90
2019-04-26T14:11:20.070Z,99.90
2019-04-26T14:16:22.989Z,99.90
2019-04-26T14:21:29.147Z,99.90
2019-04-26T14:26:41.478Z,99.90
2019-04-26T14:31:47.200Z,99.90
2019-04-26T14:37:05.577Z,99.90
2019-04-26T14:41:59.152Z,99.90
2019-04-26T14:47:13.942Z,99.90
2019-04-26T14:52:10.235Z,99.90
2019-04-26T14:57:21.411Z,99.90
2019-04-26T15:02:43.074Z,99.90
2019-04-26T15:07:51.000Z,99.90
2019-04-26T15:12:58.510Z,99.40
2019-04-26T15:17:59.414Z,99.80
2019-04-26T15:23:04.823Z,96.40
2019-04-26T15:28:12.055Z,96.40
2019-04-26T15:33:15.687Z,95.30
2019-04-26T15:38:20.922Z,96.00
2019-04-26T15:43:39.661Z,96.50
2019-04-26T15:48:54.661Z,97.20
2019-04-26T15:53:57.471Z,96.10
2019-04-26T15:59:02.550Z,96.80
2019-04-26T16:04:07.278Z,96.90
2019-04-26T16:09:13.965Z,96.80
2019-04-26T16:14:24.942Z,98.60
2019-04-26T16:19:27.830Z,98.20
2019-04-26T16:24:34.517Z,97.20
2019-04-26T16:29:58.364Z,96.30
2019-04-26T16:34:57.766Z,97.60
2019-04-26T16:40:03.401Z,98.50
2019-04-26T16:45:13.847Z,98.70
2019-04-26T16:50:24.001Z,99.90
2019-04-26T16:55:25.532Z,99.90
2019-04-26T17:00:48.102Z,99.90
2019-04-26T17:05:47.766Z,99.90
2019-04-26T17:10:42.817Z,99.90
2019-04-26T17:15:47.496Z,99.90
2019-04-26T17:20:53.147Z,99.90
2019-04-26T17:26:18.928Z,99.90
2019-04-26T17:31:23.591Z,99.90
2019-04-26T17:36:28.300Z,99.90
2019-04-26T17:41:33.325Z,99.90
2019-04-26T17:46:39.347Z,99.90
2019-04-26T17:51:44.481Z,99.90
2019-04-26T17:56:51.516Z,99.90
2019-04-26T18:02:00.928Z,99.90
2019-04-26T18:07:17.949Z,99.90
2019-04-26T18:12:12.189Z,99.90
2019-04-26T18:17:27.390Z,99.90
2019-04-26T18:22:39.299Z,99.90
2019-04-26T18:27:56.186Z,99.90
2019-04-26T18:33:02.920Z,99.90
2019-04-26T18:38:12.521Z,99.90
2019-04-26T18:43:21.677Z,99.90
2019-04-26T18:48:25.102Z,99.90
2019-04-26T18:54:09.383Z,99.90
2019-04-26T18:59:17.642Z,99.90
2019-04-26T19:04:23.618Z,99.90
2019-04-26T19:09:28.914Z,99.90
2019-04-26T19:15:02.741Z,99.90
2019-04-26T19:20:14.481Z,99.90
2019-04-26T19:25:23.131Z,99.90
2019-04-26T19:30:26.211Z,99.90
2019-04-26T19:35:32.807Z,99.90
2019-04-26T19:40:39.323Z,99.90
2019-04-26T19:46:23.422Z,99.90
2019-04-26T19:51:43.673Z,99.90
2019-04-26T19:56:56.651Z,99.90
2019-04-26T20:02:02.733Z,99.90
2019-04-26T20:12:25.239Z,99.90
2019-04-26T20:17:29.721Z,99.90
2019-04-26T20:22:34.299Z,99.90
2019-04-26T20:27:39.157Z,99.90
2019-04-26T20:32:44.842Z,99.90
2019-04-26T20:37:56.020Z,99.90
2019-04-26T20:43:03.377Z,99.90
2019-04-26T20:48:05.811Z,99.90
2019-04-26T20:53:12.011Z,99.90
2019-04-26T20:58:22.514Z,99.90
2019-04-26T21:03:28.136Z,99.90
2019-04-26T21:08:33.732Z,99.90
2019-04-26T21:13:38.329Z,99.90
2019-04-26T21:18:44.325Z,99.90
2019-04-26T21:23:50.678Z,99.90
2019-04-26T21:29:13.363Z,99.90
2019-04-26T21:34:20.710Z,99.90
2019-04-26T21:39:39.396Z,99.90
2019-04-26T21:44:44.704Z,99.90
2019-04-26T21:49:53.980Z,99.90
2019-04-26T21:54:56.490Z,99.90
2019-04-26T22:00:01.485Z,99.90
2019-04-26T22:05:11.617Z,99.90
2019-04-26T22:10:27.591Z,99.90
2019-04-26T22:15:40.077Z,99.90
2019-04-26T22:21:03.849Z,99.90
2019-04-26T22:26:09.450Z,99.90
2019-04-26T22:31:14.105Z,99.90
2019-04-26T22:36:19.029Z,99.90
2019-04-26T22:41:24.435Z,99.90
2019-04-26T22:46:54.358Z,99.90
2019-04-26T22:51:58.938Z,99.90
2019-04-26T22:57:04.005Z,99.90
2019-04-26T23:02:13.530Z,99.90
2019-04-26T23:07:22.401Z,99.90
2019-04-26T23:17:56.106Z,99.90
2019-04-26T23:23:05.235Z,99.90
2019-04-26T23:28:11.257Z,99.90
2019-04-26T23:33:15.833Z,99.90
2019-04-26T23:38:20.488Z,99.90
2019-04-26T23:43:25.670Z,99.90
2019-04-26T23:48:32.842Z,99.90
2019-04-26T23:53:38.017Z,99.90
